Time,TemperatureF,DewpointF,PressureIn,WindDirection,WindDirectionDegrees,WindSpeedMPH,WindSpeedGustMPH,Humidity,HourlyPrecipIn,Conditions,Clouds,dailyrainin,SolarRadiationWatts/m^2,SoftwareType,DateUTC
2013-02-21 00:02:00,24.5,19.0,30.12,South,178,1.0,-999.0,78,-99.99,,,0.00,0,weatherlink.com 1.10,2013-02-21 07:02:00,
2013-02-21 00:17:00,24.5,19.0,30.12,SSW,192,2.0,-999.0,79,-99.99,,,0.00,0,weatherlink.com 1.10,2013-02-21 07:17:00,
2013-02-21 00:32:00,24.5,19.0,30.12,SSE,160,2.0,-999.0,79,-99.99,,,0.00,0,weatherlink.com 1.10,2013-02-21 07:32:00,
2013-02-21 00:47:00,24.4,19.0,30.12,South,183,2.0,-999.0,79,-99.99,,,0.00,0,weatherlink.com 1.10,2013-02-21 07:47:00,
2013-02-21 01:02:00,24.4,19.0,30.12,SSW,194,1.0,-999.0,79,-99.99,,,0.00,0,weatherlink.com 1.10,2013-02-21 08:02:00,
2013-02-21 01:18:00,24.4,19.0,30.12,South,185,2.0,-999.0,79,-99.99,,,0.00,0,weatherlink.com 1.10,2013-02-21 08:18:00,
2013-02-21 01:33:00,24.4,19.0,30.12,SSW,208,0.0,-999.0,79,-99.99,,,0.00,0,weatherlink.com 1.10,2013-02-21 08:33:00,
2013-02-21 01:48:00,24.3,18.0,30.11,SSE,150,2.0,-999.0,78,-99.99,,,0.00,0,weatherlink.com 1.10,2013-02-21 08:48:00,
2013-02-21 02:03:00,24.2,18.0,30.11,SE,145,2.0,-999.0,78,-99.99,,,0.00,0,weatherlink.com 1.10,2013-02-21 09:03:00,
2013-02-21 02:18:00,24.2,18.0,30.11,SSE,148,4.0,-999.0,78,-99.99,,,0.00,0,weatherlink.com 1.10,2013-02-21 09:18:00,
2013-02-21 02:33:00,24.0,18.0,30.11,SE,142,3.0,-999.0,77,-99.99,,,0.00,0,weatherlink.com 1.10,2013-02-21 09:33:00,
2013-02-21 02:48:00,24.0,17.0,30.10,South,184,4.0,-999.0,76,-99.99,,,0.00,0,weatherlink.com 1.10,2013-02-21 09:48:00,
2013-02-21 03:03:00,23.9,17.0,30.10,SSE,166,2.0,-999.0,76,-99.99,,,0.00,0,weatherlink.com 1.10,2013-02-21 10:03:00,
2013-02-21 03:18:00,23.8,17.0,30.10,SSE,156,2.0,-999.0,76,-99.99,,,0.00,0,weatherlink.com 1.10,2013-02-21 10:18:00,
2013-02-21 03:33:00,23.5,17.0,30.10,SE,126,3.0,-999.0,75,-99.99,,,0.00,0,weatherlink.com 1.10,2013-02-21 10:33:00,
2013-02-21 03:48:00,23.2,17.0,30.10,SE,127,5.0,-999.0,77,-99.99,,,0.00,0,weatherlink.com 1.10,2013-02-21 10:48:00,
2013-02-21 04:03:00,22.4,17.0,30.10,ESE,109,1.0,-999.0,80,-99.99,,,0.00,0,weatherlink.com 1.10,2013-02-21 11:03:00,
2013-02-21 04:18:00,22.0,17.0,30.10,SE,131,2.0,-999.0,81,-99.99,,,0.00,0,weatherlink.com 1.10,2013-02-21 11:18:00,
2013-02-21 04:33:00,21.6,17.0,30.11,ESE,119,3.0,-999.0,83,-99.99,,,0.00,0,weatherlink.com 1.10,2013-02-21 11:33:00,
2013-02-21 04:48:00,21.2,17.0,30.11,ESE,121,2.0,-999.0,84,-99.99,,,0.00,0,weatherlink.com 1.10,2013-02-21 11:48:00,
2013-02-21 05:03:00,21.0,17.0,30.11,SE,126,4.0,-999.0,84,-99.99,,,0.00,0,weatherlink.com 1.10,2013-02-21 12:03:00,
2013-02-21 05:18:00,20.9,17.0,30.12,SE,142,1.0,-999.0,85,-99.99,,,0.00,0,weatherlink.com 1.10,2013-02-21 12:18:00,
2013-02-21 05:33:00,20.7,17.0,30.13,SE,127,3.0,-999.0,85,-99.99,,,0.00,0,weatherlink.com 1.10,2013-02-21 12:33:00,
2013-02-21 05:48:00,20.5,17.0,30.13,ESE,117,1.0,-999.0,85,-99.99,,,0.00,0,weatherlink.com 1.10,2013-02-21 12:48:00,
2013-02-21 06:03:00,20.4,17.0,30.13,SE,143,0.0,-999.0,86,-99.99,,,0.00,0,weatherlink.com 1.10,2013-02-21 13:03:00,
2013-02-21 06:18:00,20.3,17.0,30.13,SE,143,3.0,-999.0,86,-99.99,,,0.00,0,weatherlink.com 1.10,2013-02-21 13:18:00,
2013-02-21 06:33:00,20.1,16.0,30.14,South,186,2.0,-999.0,85,-99.99,,,0.00,0,weatherlink.com 1.10,2013-02-21 13:33:00,
2013-02-21 06:48:00,20.0,17.0,30.14,ESE,118,3.0,-999.0,86,-99.99,,,0.00,0,weatherlink.com 1.10,2013-02-21 13:48:00,
2013-02-21 07:03:00,19.8,16.0,30.15,ESE,121,3.0,-999.0,86,-99.99,,,0.00,7,weatherlink.com 1.10,2013-02-21 14:03:00,
2013-02-21 07:18:00,19.7,16.0,30.15,ESE,111,5.0,-999.0,86,-99.99,,,0.00,23,weatherlink.com 1.10,2013-02-21 14:18:00,
2013-02-21 07:33:00,19.7,16.0,30.16,SE,124,3.0,-999.0,86,-99.99,,,0.00,28,weatherlink.com 1.10,2013-02-21 14:33:00,
2013-02-21 07:48:00,19.7,16.0,30.16,SE,128,2.0,-999.0,86,-99.99,,,0.00,33,weatherlink.com 1.10,2013-02-21 14:48:00,
2013-02-21 08:03:00,19.7,16.0,30.16,SE,128,1.0,-999.0,86,-99.99,,,0.00,42,weatherlink.com 1.10,2013-02-21 15:03:00,
2013-02-21 08:18:00,19.7,16.0,30.16,SE,128,3.0,-999.0,86,-99.99,,,0.00,69,weatherlink.com 1.10,2013-02-21 15:18:00,
2013-02-21 08:34:00,20.4,17.0,30.16,SE,128,0.0,-999.0,86,-99.99,,,0.00,120,weatherlink.com 1.10,2013-02-21 15:34:00,
2013-02-21 08:49:00,21.1,17.0,30.16,SE,128,3.0,-999.0,85,-99.99,,,0.00,146,weatherlink.com 1.10,2013-02-21 15:49:00,
2013-02-21 09:04:00,21.6,18.0,30.17,SE,130,1.0,-999.0,85,-99.99,,,0.00,153,weatherlink.com 1.10,2013-02-21 16:04:00,
2013-02-21 09:19:00,21.8,18.0,30.16,ESE,121,2.0,-999.0,84,-99.99,,,0.00,153,weatherlink.com 1.10,2013-02-21 16:19:00,
2013-02-21 09:34:00,22.2,18.0,30.17,South,172,2.0,-999.0,83,-99.99,,,0.00,123,weatherlink.com 1.10,2013-02-21 16:34:00,
2013-02-21 09:49:00,22.2,18.0,30.17,ESE,111,2.0,-999.0,83,-99.99,,,0.00,128,weatherlink.com 1.10,2013-02-21 16:49:00,
2013-02-21 10:04:00,22.1,17.0,30.17,ESE,112,2.0,-999.0,82,-99.99,,,0.00,123,weatherlink.com 1.10,2013-02-21 17:04:00,
2013-02-21 10:19:00,22.4,18.0,30.17,ESE,112,1.0,-999.0,83,-99.99,,,0.00,167,weatherlink.com 1.10,2013-02-21 17:19:00,
2013-02-21 10:34:00,23.0,19.0,30.17,ESE,112,0.0,-999.0,83,-99.99,,,0.00,206,weatherlink.com 1.10,2013-02-21 17:34:00,
2013-02-21 10:49:00,23.6,19.0,30.17,ESE,112,1.0,-999.0,82,-99.99,,,0.00,244,weatherlink.com 1.10,2013-02-21 17:49:00,
2013-02-21 11:04:00,23.8,19.0,30.17,ESE,112,2.0,-999.0,82,-99.99,,,0.00,248,weatherlink.com 1.10,2013-02-21 18:04:00,
2013-02-21 11:19:00,24.0,19.0,30.17,ESE,112,2.0,-999.0,82,-99.99,,,0.00,253,weatherlink.com 1.10,2013-02-21 18:19:00,
2013-02-21 11:34:00,24.1,20.0,30.16,ESE,112,2.0,-999.0,83,-99.99,,,0.00,227,weatherlink.com 1.10,2013-02-21 18:34:00,
2013-02-21 11:49:00,24.2,20.0,30.16,ESE,112,1.0,-999.0,83,-99.99,,,0.01,243,weatherlink.com 1.10,2013-02-21 18:49:00,
2013-02-21 12:04:00,25.2,21.0,30.15,ESE,112,1.0,-999.0,83,-99.99,,,0.01,329,weatherlink.com 1.10,2013-02-21 19:04:00,
2013-02-21 12:19:00,26.2,21.0,30.15,ESE,112,1.0,-999.0,82,-99.99,,,0.01,346,weatherlink.com 1.10,2013-02-21 19:19:00,
2013-02-21 12:34:00,25.9,21.0,30.14,ESE,112,2.0,-999.0,82,-99.99,,,0.02,410,weatherlink.com 1.10,2013-02-21 19:34:00,
2013-02-21 12:49:00,26.6,22.0,30.14,ENE,68,2.0,-999.0,81,-99.99,,,0.02,417,weatherlink.com 1.10,2013-02-21 19:49:00,
2013-02-21 13:04:00,26.7,22.0,30.13,ESE,105,2.0,-999.0,81,-99.99,,,0.02,376,weatherlink.com 1.10,2013-02-21 20:04:00,
2013-02-21 13:19:00,27.2,22.0,30.12,ESE,105,2.0,-999.0,81,-99.99,,,0.02,362,weatherlink.com 1.10,2013-02-21 20:19:00,
2013-02-21 13:34:00,27.0,22.0,30.12,NE,53,2.0,-999.0,81,-99.99,,,0.02,113,weatherlink.com 1.10,2013-02-21 20:34:00,
2013-02-21 13:49:00,25.7,21.0,30.12,NE,50,3.0,-999.0,81,-99.99,,,0.02,144,weatherlink.com 1.10,2013-02-21 20:49:00,
2013-02-21 14:04:00,25.7,21.0,30.13,East,98,2.0,-999.0,81,-99.99,,,0.02,192,weatherlink.com 1.10,2013-02-21 21:04:00,
2013-02-21 14:19:00,25.4,20.0,30.13,ESE,106,6.0,-999.0,81,-99.99,,,0.02,113,weatherlink.com 1.10,2013-02-21 21:19:00,
2013-02-21 14:34:00,24.7,20.0,30.12,ESE,118,3.0,-999.0,81,-99.99,,,0.02,120,weatherlink.com 1.10,2013-02-21 21:34:00,
2013-02-21 14:49:00,24.2,19.0,30.13,SE,125,3.0,-999.0,81,-99.99,,,0.02,86,weatherlink.com 1.10,2013-02-21 21:49:00,
2013-02-21 15:04:00,24.3,19.0,30.13,East,101,2.0,-999.0,81,-99.99,,,0.02,67,weatherlink.com 1.10,2013-02-21 22:04:00,
2013-02-21 15:19:00,24.4,19.0,30.13,ESE,107,1.0,-999.0,81,-99.99,,,0.02,63,weatherlink.com 1.10,2013-02-21 22:19:00,
2013-02-21 15:34:00,23.8,19.0,30.14,ESE,103,2.0,-999.0,81,-99.99,,,0.02,39,weatherlink.com 1.10,2013-02-21 22:34:00,
2013-02-21 15:49:00,23.6,19.0,30.13,ESE,102,2.0,-999.0,81,-99.99,,,0.02,39,weatherlink.com 1.10,2013-02-21 22:49:00,
2013-02-21 16:04:00,23.2,18.0,30.14,ENE,69,1.0,-999.0,81,-99.99,,,0.02,35,weatherlink.com 1.10,2013-02-21 23:04:00,
2013-02-21 16:19:00,23.1,18.0,30.14,ENE,78,3.0,-999.0,80,-99.99,,,0.02,21,weatherlink.com 1.10,2013-02-21 23:19:00,
2013-02-21 16:34:00,23.0,18.0,30.14,East,98,2.0,-999.0,80,-99.99,,,0.02,12,weatherlink.com 1.10,2013-02-21 23:34:00,
2013-02-21 16:49:00,22.9,18.0,30.15,East,98,3.0,-999.0,80,-99.99,,,0.02,11,weatherlink.com 1.10,2013-02-21 23:49:00,
2013-02-21 17:04:00,22.7,18.0,30.15,East,98,1.0,-999.0,81,-99.99,,,0.02,7,weatherlink.com 1.10,2013-02-22 00:04:00,
2013-02-21 17:19:00,22.6,18.0,30.16,East,98,0.0,-999.0,81,-99.99,,,0.02,0,weatherlink.com 1.10,2013-02-22 00:19:00,
2013-02-21 17:34:00,22.6,18.0,30.16,East,98,0.0,-999.0,81,-99.99,,,0.02,0,weatherlink.com 1.10,2013-02-22 00:34:00,
2013-02-21 17:49:00,22.5,18.0,30.16,East,98,0.0,-999.0,81,-99.99,,,0.02,0,weatherlink.com 1.10,2013-02-22 00:49:00,
2013-02-21 18:04:00,22.4,17.0,30.17,East,98,0.0,-999.0,81,-99.99,,,0.02,0,weatherlink.com 1.10,2013-02-22 01:04:00,
2013-02-21 18:19:00,22.4,17.0,30.17,East,98,0.0,-999.0,81,-99.99,,,0.02,0,weatherlink.com 1.10,2013-02-22 01:19:00,
2013-02-21 18:34:00,22.4,17.0,30.16,East,98,0.0,-999.0,81,-99.99,,,0.02,0,weatherlink.com 1.10,2013-02-22 01:34:00,
2013-02-21 18:49:00,22.1,17.0,30.16,East,98,0.0,-999.0,82,-99.99,,,0.02,0,weatherlink.com 1.10,2013-02-22 01:49:00,
2013-02-21 19:04:00,22.1,17.0,30.16,East,98,0.0,-999.0,82,-99.99,,,0.02,0,weatherlink.com 1.10,2013-02-22 02:04:00,
2013-02-21 19:19:00,22.1,17.0,30.16,East,98,0.0,-999.0,82,-99.99,,,0.02,0,weatherlink.com 1.10,2013-02-22 02:19:00,
2013-02-21 19:34:00,22.0,18.0,30.16,East,98,2.0,-999.0,83,-99.99,,,0.02,0,weatherlink.com 1.10,2013-02-22 02:34:00,
2013-02-21 19:49:00,21.5,17.0,30.17,East,98,2.0,-999.0,83,-99.99,,,0.02,0,weatherlink.com 1.10,2013-02-22 02:49:00,
2013-02-21 20:04:00,21.3,17.0,30.16,East,98,0.0,-999.0,84,-99.99,,,0.02,0,weatherlink.com 1.10,2013-02-22 03:04:00,
2013-02-21 20:19:00,20.7,17.0,30.16,SE,140,2.0,-999.0,84,-99.99,,,0.02,0,weatherlink.com 1.10,2013-02-22 03:19:00,
2013-02-21 20:34:00,20.5,17.0,30.16,SE,140,0.0,-999.0,85,-99.99,,,0.02,0,weatherlink.com 1.10,2013-02-22 03:34:00,
2013-02-21 20:49:00,20.3,17.0,30.17,SE,140,0.0,-999.0,85,-99.99,,,0.02,0,weatherlink.com 1.10,2013-02-22 03:49:00,
2013-02-21 21:04:00,19.7,16.0,30.16,SE,140,1.0,-999.0,85,-99.99,,,0.02,0,weatherlink.com 1.10,2013-02-22 04:04:00,
2013-02-21 21:19:00,19.0,15.0,30.16,SE,138,1.0,-999.0,85,-99.99,,,0.02,0,weatherlink.com 1.10,2013-02-22 04:19:00,
2013-02-21 21:34:00,18.6,15.0,30.16,SE,138,2.0,-999.0,85,-99.99,,,0.02,0,weatherlink.com 1.10,2013-02-22 04:34:00,
2013-02-21 21:49:00,18.4,15.0,30.17,SE,138,2.0,-999.0,85,-99.99,,,0.02,0,weatherlink.com 1.10,2013-02-22 04:49:00,
2013-02-21 22:04:00,18.3,15.0,30.16,SE,138,0.0,-999.0,85,-99.99,,,0.02,0,weatherlink.com 1.10,2013-02-22 05:04:00,
2013-02-21 22:19:00,18.0,14.0,30.16,SE,138,0.0,-999.0,85,-99.99,,,0.02,0,weatherlink.com 1.10,2013-02-22 05:19:00,
2013-02-21 22:35:00,17.6,14.0,30.16,SE,138,2.0,-999.0,85,-99.99,,,0.02,0,weatherlink.com 1.10,2013-02-22 05:35:00,
2013-02-21 22:50:00,17.5,14.0,30.16,SE,138,0.0,-999.0,85,-99.99,,,0.02,0,weatherlink.com 1.10,2013-02-22 05:50:00,
2013-02-21 23:05:00,17.4,14.0,30.16,SE,138,0.0,-999.0,85,-99.99,,,0.02,0,weatherlink.com 1.10,2013-02-22 06:05:00,
2013-02-21 23:20:00,17.4,14.0,30.17,SE,138,1.0,-999.0,85,-99.99,,,0.02,0,weatherlink.com 1.10,2013-02-22 06:20:00,
2013-02-21 23:35:00,17.2,14.0,30.16,SE,138,0.0,-999.0,85,-99.99,,,0.02,0,weatherlink.com 1.10,2013-02-22 06:35:00,
2013-02-21 23:50:00,16.8,13.0,30.16,SE,138,2.0,-999.0,85,-99.99,,,0.02,0,weatherlink.com 1.10,2013-02-22 06:50:00,